Time;durP1;ratioP1;P1;durP2;ratioP2;P2;SDS_P1;SDS_P2;PMS_P1;PMS_P2;Temp;Humidity;BMP_temperature;BMP_pressure;BME280_temperature;BME280_humidity;BME280_pressure;Samples;Min_cycle;Max_cycle;Signal;HPM_P1;HPM_P2
2022/07/12 00:00:21;;;;;;;1999.90;999.90;;;15.60;99.90;;;;;;5073845;28;20215;-61
2022/07/12 00:02:48;;;;;;;1999.90;999.90;;;15.70;99.90;;;;;;5073747;28;20197;-60
2022/07/12 00:05:15;;;;;;;1999.90;999.90;;;15.70;99.90;;;;;;5073491;28;20205;-60
2022/07/12 00:07:44;;;;;;;1999.90;999.90;;;15.80;99.90;;;;;;5073806;28;20205;-61
2022/07/12 00:10:11;;;;;;;1999.90;999.90;;;15.70;99.90;;;;;;5073714;28;20195;-61
2022/07/12 00:12:38;;;;;;;1999.90;999.90;;;15.50;99.90;;;;;;5073600;28;20200;-61
2022/07/12 00:15:06;;;;;;;1999.90;999.90;;;15.10;99.90;;;;;;5073635;28;20198;-61
2022/07/12 00:17:34;;;;;;;1999.90;999.90;;;15.10;99.90;;;;;;5073262;28;20239;-60
2022/07/12 00:20:01;;;;;;;1999.90;999.90;;;15.00;99.90;;;;;;5073511;28;20215;-61
2022/07/12 00:22:29;;;;;;;1999.90;999.90;;;14.90;99.90;;;;;;5073399;28;20207;-61
2022/07/12 00:24:57;;;;;;;1999.90;999.90;;;14.90;99.90;;;;;;5073486;28;20195;-61
2022/07/12 00:27:24;;;;;;;1999.90;999.90;;;15.00;99.90;;;;;;5073435;28;20195;-61
2022/07/12 00:29:52;;;;;;;1999.90;999.90;;;15.00;99.90;;;;;;5073434;28;20194;-61
2022/07/12 00:32:19;;;;;;;1999.90;999.90;;;15.00;99.90;;;;;;5073387;28;20194;-61
2022/07/12 00:34:46;;;;;;;1999.90;999.90;;;15.00;99.90;;;;;;5073179;28;20400;-60
2022/07/12 00:37:13;;;;;;;1999.90;999.90;;;15.10;99.90;;;;;;5072924;28;20202;-61
2022/07/12 00:39:40;;;;;;;1999.90;999.90;;;15.10;99.90;;;;;;5072767;28;20222;-61
2022/07/12 00:42:08;;;;;;;1999.90;999.90;;;15.20;99.90;;;;;;5072803;28;20225;-61
2022/07/12 00:44:36;;;;;;;1999.90;999.90;;;15.30;99.90;;;;;;5072851;28;20612;-61
2022/07/12 00:47:04;;;;;;;1999.90;999.90;;;15.20;99.90;;;;;;5072715;28;20198;-61
2022/07/12 00:49:32;;;;;;;1999.90;999.90;;;15.00;99.90;;;;;;5073019;28;20296;-61
2022/07/12 00:51:59;;;;;;;1999.90;999.90;;;15.00;99.90;;;;;;5072659;28;20207;-60
2022/07/12 00:54:26;;;;;;;1999.90;999.90;;;15.00;99.90;;;;;;5071424;28;20218;-61
2022/07/12 00:56:53;;;;;;;1999.90;999.90;;;15.00;99.90;;;;;;5071328;28;20199;-60
2022/07/12 00:59:21;;;;;;;1999.90;999.90;;;14.90;99.90;;;;;;5071276;28;20251;-60
2022/07/12 01:01:48;;;;;;;1999.90;999.90;;;14.80;99.90;;;;;;5072001;28;20660;-60
2022/07/12 01:04:18;;;;;;;1999.90;999.90;;;14.80;99.90;;;;;;5072739;28;20221;-60
2022/07/12 01:06:45;;;;;;;1999.90;999.90;;;14.70;99.90;;;;;;5072186;28;20207;-61
2022/07/12 01:09:12;;;;;;;1999.90;999.90;;;14.70;99.90;;;;;;5071809;28;20190;-61
2022/07/12 01:11:39;;;;;;;1999.90;999.90;;;14.70;99.90;;;;;;5072679;28;20197;-61
2022/07/12 01:14:07;;;;;;;1999.90;999.90;;;14.70;99.90;;;;;;5072711;28;20195;-61
2022/07/12 01:16:37;;;;;;;1999.90;999.90;;;14.80;99.90;;;;;;5072632;28;20205;-61
2022/07/12 01:19:07;;;;;;;1999.90;999.90;;;14.70;99.90;;;;;;5071446;28;20229;-60
2022/07/12 01:21:38;;;;;;;1999.90;999.90;;;14.60;99.90;;;;;;5071680;28;20667;-60
2022/07/12 01:24:08;;;;;;;1999.90;999.90;;;14.60;99.90;;;;;;5071507;28;20244;-61
2022/07/12 01:26:37;;;;;;;1999.90;999.90;;;14.60;99.90;;;;;;5071481;28;20705;-61
2022/07/12 01:29:06;;;;;;;1999.90;999.90;;;14.60;99.90;;;;;;5070996;28;20206;-60
2022/07/12 01:31:34;;;;;;;1999.90;999.90;;;14.70;99.90;;;;;;5071421;28;20202;-61
2022/07/12 01:34:01;;;;;;;1999.90;999.90;;;14.60;99.90;;;;;;5071361;28;20255;-60
2022/07/12 01:36:29;;;;;;;1999.90;999.90;;;14.70;99.90;;;;;;5072042;28;20194;-60
2022/07/12 01:38:56;;;;;;;1999.90;999.90;;;14.70;99.90;;;;;;5072440;28;20277;-61
2022/07/12 01:41:25;;;;;;;1999.90;999.90;;;14.60;99.90;;;;;;5072061;28;20618;-61
2022/07/12 01:43:52;;;;;;;1999.90;999.90;;;14.60;99.90;;;;;;5071649;28;20190;-61
2022/07/12 01:46:19;;;;;;;1999.90;999.90;;;14.70;99.90;;;;;;5070930;28;20672;-61
2022/07/12 01:48:47;;;;;;;1999.90;999.90;;;14.70;99.90;;;;;;5071696;28;20567;-61
2022/07/12 01:51:14;;;;;;;1999.90;999.90;;;14.70;99.90;;;;;;5072257;28;20195;-61
2022/07/12 01:53:41;;;;;;;1999.90;999.90;;;14.70;99.90;;;;;;5071993;28;20671;-61
2022/07/12 01:56:08;;;;;;;1999.90;999.90;;;14.70;99.90;;;;;;5071984;28;20211;-61
2022/07/12 01:58:39;;;;;;;1999.90;999.90;;;14.70;99.90;;;;;;5071485;28;20195;-60
2022/07/12 02:01:06;;;;;;;1999.90;999.90;;;14.70;99.90;;;;;;5072249;28;20203;-61
2022/07/12 02:03:35;;;;;;;1999.90;999.90;;;14.70;99.90;;;;;;5071763;28;20702;-60
2022/07/12 02:06:02;;;;;;;1999.90;999.90;;;14.60;99.90;;;;;;5071945;28;20191;-60
2022/07/12 02:08:29;;;;;;;1999.90;999.90;;;14.50;99.90;;;;;;5071693;28;20198;-61
2022/07/12 02:10:56;;;;;;;1999.90;999.90;;;14.40;99.90;;;;;;5071820;28;20199;-61
2022/07/12 02:13:23;;;;;;;1999.90;999.90;;;14.40;99.90;;;;;;5072136;28;20202;-61
2022/07/12 02:15:52;;;;;;;1999.90;999.90;;;14.30;99.90;;;;;;5071767;28;20201;-61
2022/07/12 02:18:19;;;;;;;1999.90;999.90;;;14.30;99.90;;;;;;5070888;28;20239;-61
2022/07/12 02:20:46;;;;;;;1999.90;999.90;;;14.20;99.90;;;;;;5075401;28;20622;-61
2022/07/12 02:23:13;;;;;;;1999.90;999.90;;;14.20;99.90;;;;;;5075512;28;20679;-61
2022/07/12 02:25:41;;;;;;;1999.90;999.90;;;14.20;99.90;;;;;;5075362;28;20204;-61
2022/07/12 02:28:08;;;;;;;1999.90;999.90;;;14.20;99.90;;;;;;5074917;28;20195;-61
2022/07/12 02:30:35;;;;;;;1999.90;999.90;;;14.10;99.90;;;;;;5075696;28;20194;-60
2022/07/12 02:33:03;;;;;;;1999.90;999.90;;;14.20;99.90;;;;;;5075519;28;20279;-60
2022/07/12 02:35:30;;;;;;;1999.90;999.90;;;14.10;99.90;;;;;;5075152;28;20205;-60
2022/07/12 02:37:57;;;;;;;1999.90;999.90;;;14.00;99.90;;;;;;5074633;28;20199;-61
2022/07/12 02:43:09;;;;;;;1999.90;999.90;;;14.10;99.90;;;;;;5075129;28;20671;-61
2022/07/12 02:45:36;;;;;;;1999.90;999.90;;;14.10;99.90;;;;;;5075127;28;20541;-60
2022/07/12 02:48:05;;;;;;;1999.90;999.90;;;14.10;99.90;;;;;;5075068;28;20195;-61
2022/07/12 02:50:32;;;;;;;1999.90;999.90;;;14.10;99.90;;;;;;5074632;28;20551;-61
2022/07/12 02:52:59;;;;;;;1999.90;999.90;;;14.20;99.90;;;;;;5074906;28;20267;-61
2022/07/12 02:55:26;;;;;;;1999.90;999.90;;;14.20;99.90;;;;;;5075004;28;20195;-61
2022/07/12 02:57:53;;;;;;;1999.90;999.90;;;14.10;99.90;;;;;;5075198;28;20199;-60
2022/07/12 03:00:21;;;;;;;1999.90;999.90;;;14.00;99.90;;;;;;5074439;28;20557;-61
2022/07/12 03:02:48;;;;;;;1999.90;999.90;;;14.00;99.90;;;;;;5075051;28;20216;-60
2022/07/12 03:05:16;;;;;;;1999.90;999.90;;;14.00;99.90;;;;;;5075106;28;20202;-60
2022/07/12 03:07:43;;;;;;;1999.90;999.90;;;14.00;99.90;;;;;;5074558;28;20267;-60
2022/07/12 03:10:11;;;;;;;1999.90;999.90;;;13.80;99.90;;;;;;5074914;28;20197;-61
2022/07/12 03:12:39;;;;;;;1999.90;999.90;;;13.80;99.90;;;;;;5074605;28;20205;-61
2022/07/12 03:15:07;;;;;;;1999.90;999.90;;;13.80;99.90;;;;;;5074928;28;20202;-60
2022/07/12 03:17:35;;;;;;;1999.90;999.90;;;13.90;99.90;;;;;;5073791;28;20238;-61
2022/07/12 03:20:03;;;;;;;1999.90;999.90;;;13.80;99.90;;;;;;5074738;28;20195;-60
2022/07/12 03:22:31;;;;;;;1999.90;999.90;;;13.80;99.90;;;;;;5074550;28;20574;-61
2022/07/12 03:24:58;;;;;;;1999.90;999.90;;;13.80;99.90;;;;;;5074638;28;20205;-61
2022/07/12 03:27:26;;;;;;;1999.90;999.90;;;13.70;99.90;;;;;;5073766;28;20190;-60
2022/07/12 03:29:53;;;;;;;1999.90;999.90;;;13.60;99.90;;;;;;5073944;28;20207;-60
2022/07/12 03:32:20;;;;;;;1999.90;999.90;;;13.70;99.90;;;;;;5074087;28;20191;-60
2022/07/12 03:34:47;;;;;;;1999.90;999.90;;;13.70;99.90;;;;;;5074633;28;20201;-60
2022/07/12 03:37:14;;;;;;;1999.90;999.90;;;13.60;99.90;;;;;;5074450;28;20203;-61
2022/07/12 03:39:43;;;;;;;1999.90;999.90;;;13.60;99.90;;;;;;5072899;28;20191;-60
2022/07/12 03:42:11;;;;;;;1999.90;999.90;;;13.50;99.90;;;;;;5074236;28;20217;-61
2022/07/12 03:44:38;;;;;;;1999.90;999.90;;;13.60;99.90;;;;;;5074269;28;20202;-60
2022/07/12 03:47:05;;;;;;;1999.90;999.90;;;13.70;99.90;;;;;;5074327;28;20198;-60
2022/07/12 03:49:32;;;;;;;1999.90;999.90;;;13.70;99.90;;;;;;5073632;28;20195;-60
2022/07/12 03:51:59;;;;;;;1999.90;999.90;;;13.80;99.90;;;;;;5073919;28;20224;-61
2022/07/12 03:54:27;;;;;;;1999.90;999.90;;;13.90;99.90;;;;;;5074142;28;20204;-61
2022/07/12 03:59:39;;;;;;;1999.90;999.90;;;13.80;99.90;;;;;;5074427;28;20584;-60
2022/07/12 04:02:06;;;;;;;1999.90;999.90;;;13.80;99.90;;;;;;5073542;28;20215;-61
2022/07/12 04:04:33;;;;;;;1999.90;999.90;;;13.80;99.90;;;;;;5073698;28;21075;-60
2022/07/12 04:07:01;;;;;;;1999.90;999.90;;;13.80;99.90;;;;;;5073513;28;20548;-60
2022/07/12 04:09:28;;;;;;;1999.90;999.90;;;13.80;99.90;;;;;;5073466;28;20198;-61
2022/07/12 04:11:56;;;;;;;1999.90;999.90;;;13.80;99.90;;;;;;5073851;28;20190;-61
2022/07/12 04:14:23;;;;;;;1999.90;999.90;;;13.80;99.90;;;;;;5072692;28;20740;-62
2022/07/12 04:16:50;;;;;;;1999.90;999.90;;;13.80;99.90;;;;;;5072900;28;20690;-60
2022/07/12 04:19:18;;;;;;;1999.90;999.90;;;13.80;99.90;;;;;;5073240;28;20190;-60
2022/07/12 04:21:45;;;;;;;1999.90;999.90;;;14.00;99.90;;;;;;5073410;28;20710;-60
2022/07/12 04:24:12;;;;;;;1999.90;999.90;;;14.10;99.90;;;;;;5073225;28;20606;-60
2022/07/12 04:26:39;;;;;;;1999.90;999.90;;;14.20;99.90;;;;;;5073065;28;20190;-60
2022/07/12 04:29:07;;;;;;;1999.90;999.90;;;14.10;99.90;;;;;;5072271;28;20680;-60
2022/07/12 04:31:34;;;;;;;1999.90;999.90;;;14.10;99.90;;;;;;5073069;28;20199;-61
2022/07/12 04:34:01;;;;;;;1999.90;999.90;;;14.20;99.90;;;;;;5072879;28;20545;-60
2022/07/12 04:36:29;;;;;;;1999.90;999.90;;;14.30;99.90;;;;;;5073141;28;20201;-61
2022/07/12 04:38:56;;;;;;;1999.90;999.90;;;14.40;99.90;;;;;;5072806;28;20191;-61
2022/07/12 04:41:23;;;;;;;1999.90;999.90;;;14.50;99.90;;;;;;5072988;28;20252;-61
2022/07/12 04:43:50;;;;;;;1999.90;999.90;;;14.60;99.90;;;;;;5073105;28;20205;-61
2022/07/12 04:46:19;;;;;;;1999.90;999.90;;;14.70;99.90;;;;;;5073059;28;20212;-60
2022/07/12 04:48:46;;;;;;;1999.90;999.90;;;14.80;99.90;;;;;;5072641;28;20213;-61
2022/07/12 04:51:15;;;;;;;1999.90;999.90;;;14.90;99.90;;;;;;5072595;28;20202;-61
2022/07/12 04:53:42;;;;;;;1999.90;999.90;;;14.90;99.90;;;;;;5072667;28;20195;-61
2022/07/12 04:56:09;;;;;;;1999.90;999.90;;;15.00;99.90;;;;;;5072608;28;20232;-61
2022/07/12 04:58:36;;;;;;;1999.90;999.90;;;15.00;99.90;;;;;;5072937;28;20202;-60
2022/07/12 05:01:04;;;;;;;1999.90;999.90;;;15.10;99.90;;;;;;5072470;28;20219;-60
2022/07/12 05:03:32;;;;;;;1999.90;999.90;;;15.10;99.90;;;;;;5072554;28;20247;-60
2022/07/12 05:05:59;;;;;;;1999.90;999.90;;;15.20;99.90;;;;;;5072575;28;20902;-60
2022/07/12 05:08:26;;;;;;;1999.90;999.90;;;15.30;99.90;;;;;;5072180;28;20194;-60
2022/07/12 05:10:53;;;;;;;1999.90;999.90;;;15.40;99.90;;;;;;5072596;28;20689;-60
2022/07/12 05:13:21;;;;;;;1999.90;999.90;;;15.60;99.90;;;;;;5072437;28;20195;-60
2022/07/12 05:15:48;;;;;;;1999.90;999.90;;;15.70;99.90;;;;;;5072733;28;20202;-60
2022/07/12 05:18:15;;;;;;;1999.90;999.90;;;15.90;99.90;;;;;;5072229;28;20230;-60
2022/07/12 05:20:43;;;;;;;1999.90;999.90;;;16.30;99.90;;;;;;5072635;28;20206;-60
2022/07/12 05:23:10;;;;;;;1999.90;999.90;;;16.60;99.90;;;;;;5072229;28;20222;-59
2022/07/12 05:25:38;;;;;;;1999.90;999.90;;;17.10;99.90;;;;;;5072296;28;20566;-60
2022/07/12 05:28:05;;;;;;;1999.90;999.90;;;18.00;99.90;;;;;;5072567;28;20199;-60
2022/07/12 05:30:33;;;;;;;1999.90;999.90;;;18.70;99.90;;;;;;5072290;28;20190;-60
2022/07/12 05:33:00;;;;;;;1999.90;999.90;;;19.20;99.90;;;;;;5072048;28;20247;-60
2022/07/12 05:35:27;;;;;;;1999.90;999.90;;;19.30;99.90;;;;;;5071963;28;20195;-60
2022/07/12 05:37:55;;;;;;;1999.90;999.90;;;19.50;99.90;;;;;;5072176;28;20202;-61
2022/07/12 05:40:22;;;;;;;1999.90;999.90;;;19.90;99.90;;;;;;5072356;28;20198;-61
2022/07/12 05:42:51;;;;;;;1999.90;999.90;;;20.30;99.90;;;;;;5071961;28;20271;-61
2022/07/12 05:45:18;;;;;;;1999.90;999.90;;;20.90;99.90;;;;;;5071863;28;20555;-61
2022/07/12 05:47:45;;;;;;;1999.90;999.90;;;21.50;99.90;;;;;;5072362;28;20308;-61
2022/07/12 05:50:12;;;;;;;1999.90;999.90;;;21.80;99.90;;;;;;5071967;28;20736;-61
2022/07/12 05:55:25;;;;;;;1999.90;999.90;;;21.00;99.90;;;;;;5075847;28;20177;-62
2022/07/12 05:57:52;;;;;;;1999.90;999.90;;;21.00;99.90;;;;;;5076266;28;20207;-62
2022/07/12 06:00:20;;;;;;;1999.90;999.90;;;21.10;99.90;;;;;;5075997;28;20697;-62
2022/07/12 06:02:47;;;;;;;1999.90;999.90;;;20.90;99.90;;;;;;5075972;28;20219;-62
2022/07/12 06:05:14;;;;;;;1999.90;999.90;;;21.70;99.90;;;;;;5076077;28;20240;-61
2022/07/12 06:07:41;;;;;;;1999.90;999.90;;;22.20;99.90;;;;;;5075830;28;20197;-60
2022/07/12 06:10:09;;;;;;;1999.90;999.90;;;22.70;99.90;;;;;;5076025;28;20255;-59
2022/07/12 06:12:38;;;;;;;1999.90;999.90;;;22.50;99.90;;;;;;5075935;28;20190;-60
2022/07/12 06:15:06;;;;;;;1999.90;999.90;;;22.20;99.90;;;;;;5075714;28;20657;-60
2022/07/12 06:17:34;;;;;;;1999.90;999.90;;;22.30;99.90;;;;;;5075443;28;20594;-59
2022/07/12 06:20:02;;;;;;;1999.90;999.90;;;22.70;99.90;;;;;;5075796;28;20198;-60
2022/07/12 06:22:29;;;;;;;1999.90;999.90;;;23.00;99.90;;;;;;5075573;28;20206;-60
2022/07/12 06:24:56;;;;;;;1999.90;999.90;;;23.30;99.90;;;;;;5075669;28;20228;-60
2022/07/12 06:27:23;;;;;;;1999.90;999.90;;;23.50;99.90;;;;;;5075669;28;20536;-60
2022/07/12 06:29:52;;;;;;;1999.90;999.90;;;23.70;99.90;;;;;;5075621;28;20217;-60
2022/07/12 06:32:19;;;;;;;1999.90;999.90;;;24.20;99.90;;;;;;5075133;28;20198;-60
2022/07/12 06:34:46;;;;;;;1999.90;999.90;;;23.80;99.90;;;;;;5075204;28;20578;-62
2022/07/12 06:37:14;;;;;;;1999.90;999.90;;;23.10;99.90;;;;;;5075156;28;20582;-62
2022/07/12 06:39:41;;;;;;;1999.90;999.90;;;22.90;99.90;;;;;;5075478;28;20195;-61
2022/07/12 06:42:09;;;;;;;1999.90;999.90;;;23.00;99.90;;;;;;5074999;28;20779;-61
2022/07/12 06:44:36;;;;;;;1999.90;999.90;;;23.60;99.90;;;;;;5075103;28;20575;-61
2022/07/12 06:47:05;;;;;;;1999.90;999.90;;;24.00;99.90;;;;;;5075317;28;20196;-61
2022/07/12 06:49:32;;;;;;;1999.90;999.90;;;24.40;99.90;;;;;;5075241;28;20195;-61
2022/07/12 06:51:59;;;;;;;1999.90;999.90;;;24.50;99.90;;;;;;5074903;28;20203;-61
2022/07/12 06:54:26;;;;;;;1999.90;999.90;;;24.20;99.90;;;;;;5074958;28;20194;-61
2022/07/12 06:56:54;;;;;;;1999.90;999.90;;;24.00;99.90;;;;;;5074887;28;20201;-61
2022/07/12 06:59:21;;;;;;;1999.90;999.90;;;24.00;99.90;;;;;;5075179;28;20256;-61
2022/07/12 07:01:49;;;;;;;1999.90;999.90;;;23.60;99.90;;;;;;5074756;28;20246;-61
2022/07/12 07:04:18;;;;;;;1999.90;999.90;;;24.50;99.90;;;;;;5074478;28;20195;-60
2022/07/12 07:06:45;;;;;;;1999.90;999.90;;;24.80;99.90;;;;;;5073365;28;20203;-60
2022/07/12 07:09:12;;;;;;;1999.90;999.90;;;24.00;99.90;;;;;;5074692;28;20203;-60
2022/07/12 07:11:39;;;;;;;1999.90;999.90;;;24.30;99.90;;;;;;5074949;28;20202;-61
2022/07/12 07:14:06;;;;;;;1999.90;999.90;;;24.50;99.90;;;;;;5074596;28;20567;-60
2022/07/12 07:16:33;;;;;;;1999.90;999.90;;;24.80;99.90;;;;;;5074490;28;20194;-61
2022/07/12 07:19:01;;;;;;;1999.90;999.90;;;25.10;99.90;;;;;;5073979;28;20231;-60
2022/07/12 07:21:30;;;;;;;1999.90;999.90;;;25.20;99.90;;;;;;5074003;28;20199;-61
2022/07/12 07:23:57;;;;;;;1999.90;999.90;;;25.30;1.00;;;;;;5074722;28;20248;-61
2022/07/12 07:26:25;;;;;;;1999.90;999.90;;;25.20;1.00;;;;;;5074502;28;20198;-61
2022/07/12 07:31:37;;;;;;;1999.90;999.90;;;25.90;99.90;;;;;;5074195;28;20191;-60
2022/07/12 07:34:04;;;;;;;1999.90;999.90;;;26.30;99.90;;;;;;5073977;28;20195;-60
2022/07/12 07:36:33;;;;;;;1999.90;999.90;;;26.00;99.90;;;;;;5074049;28;20686;-60
2022/07/12 07:39:00;;;;;;;1999.90;999.90;;;25.80;64.20;;;;;;5074186;28;20202;-61
2022/07/12 07:41:27;;;;;;;1999.90;999.90;;;26.00;99.90;;;;;;5074367;28;20199;-61
2022/07/12 07:43:55;;;;;;;1999.90;999.90;;;25.70;99.90;;;;;;5073954;28;20207;-60
2022/07/12 07:46:22;;;;;;;1999.90;999.90;;;26.00;99.90;;;;;;5074242;28;20229;-60
2022/07/12 07:48:49;;;;;;;1999.90;999.90;;;26.50;99.90;;;;;;5073941;28;20202;-60
2022/07/12 07:51:16;;;;;;;1999.90;999.90;;;26.70;99.90;;;;;;5073755;28;20195;-61
2022/07/12 07:53:44;;;;;;;1999.90;999.90;;;26.70;99.90;;;;;;5074088;28;20195;-62
2022/07/12 07:56:12;;;;;;;1999.90;999.90;;;26.90;99.90;;;;;;5074013;28;20251;-61
2022/07/12 07:58:39;;;;;;;1999.90;999.90;;;26.80;1.00;;;;;;5073686;28;20664;-61
2022/07/12 08:01:06;;;;;;;1999.90;999.90;;;26.70;1.00;;;;;;5073734;28;20672;-61
2022/07/12 08:03:33;;;;;;;1999.90;999.90;;;27.10;1.00;;;;;;5073408;28;20695;-60
2022/07/12 08:06:00;;;;;;;1999.90;999.90;;;27.30;1.00;;;;;;5073751;28;20263;-60
2022/07/12 08:08:28;;;;;;;1999.90;999.90;;;27.30;1.00;;;;;;5073768;28;20194;-61
2022/07/12 08:10:57;;;;;;;1999.90;999.90;;;26.40;99.90;;;;;;5073500;28;20664;-61
2022/07/12 08:13:24;;;;;;;1999.90;999.90;;;27.00;1.00;;;;;;5073347;28;20694;-61
2022/07/12 08:15:51;;;;;;;1999.90;999.90;;;26.30;99.90;;;;;;5073618;28;20205;-62
2022/07/12 08:18:19;;;;;;;1999.90;999.90;;;25.60;1.40;;;;;;5072853;28;20227;-63
2022/07/12 08:20:46;;;;;;;1999.90;999.90;;;26.00;1.00;;;;;;5073203;28;20195;-63
2022/07/12 08:23:13;;;;;;;1999.90;999.90;;;26.40;1.00;;;;;;5073455;28;20219;-63
2022/07/12 08:25:41;;;;;;;1999.90;999.90;;;26.60;22.40;;;;;;5073468;28;20252;-63
2022/07/12 08:28:09;;;;;;;1999.90;999.90;;;26.40;99.90;;;;;;5073189;28;20195;-63
2022/07/12 08:30:36;;;;;;;1999.90;999.90;;;26.40;1.00;;;;;;5073376;28;20191;-63
2022/07/12 08:33:03;;;;;;;1999.90;999.90;;;26.00;1.00;;;;;;5072895;28;20247;-63
2022/07/12 08:35:30;;;;;;;1999.90;999.90;;;26.60;99.90;;;;;;5073305;28;20195;-63
2022/07/12 08:37:57;;;;;;;1999.90;999.90;;;27.00;1.00;;;;;;5073075;28;20563;-63
2022/07/12 08:40:25;;;;;;;1999.90;999.90;;;27.50;1.00;;;;;;5072957;28;20252;-63
2022/07/12 08:42:52;;;;;;;1999.90;999.90;;;27.80;99.90;;;;;;5073118;28;20225;-63
2022/07/12 08:45:20;;;;;;;1999.90;999.90;;;27.60;99.90;;;;;;5072780;28;20668;-63
2022/07/12 08:47:47;;;;;;;1999.90;999.90;;;27.50;99.90;;;;;;5072780;28;20203;-63
2022/07/12 08:50:19;;;;;;;1999.90;999.90;;;27.60;99.90;;;;;;5072812;28;20194;-63
2022/07/12 08:52:48;;;;;;;1999.90;999.90;;;27.80;99.90;;;;;;5072863;28;20183;-63
2022/07/12 08:55:20;;;;;;;1999.90;999.90;;;27.70;1.00;;;;;;5072351;28;20252;-63
2022/07/12 08:57:48;;;;;;;1999.90;999.90;;;27.20;1.00;;;;;;5072490;28;20271;-63
2022/07/12 09:00:16;;;;;;;1999.90;999.90;;;26.80;1.00;;;;;;5072563;28;20690;-63
2022/07/12 09:02:51;;;;;;;1999.90;999.90;;;27.10;39.70;;;;;;5072667;28;20219;-63
2022/07/12 09:05:21;;;;;;;1999.90;999.90;;;27.20;99.90;;;;;;5072501;28;20198;-60
2022/07/12 09:07:50;;;;;;;1999.90;999.90;;;27.40;1.00;;;;;;5073054;28;20248;-63
2022/07/12 09:10:17;;;;;;;1999.90;999.90;;;27.10;1.00;;;;;;5072775;28;20195;-63
2022/07/12 09:12:46;;;;;;;1999.90;999.90;;;27.20;1.00;;;;;;5072410;28;20199;-63
2022/07/12 09:15:19;;;;;;;1999.90;999.90;;;27.20;1.00;;;;;;5072686;28;20190;-63
2022/07/12 09:17:58;;;;;;;1999.90;999.90;;;27.60;1.00;;;;;;5072115;28;20235;-63
2022/07/12 09:20:28;;;;;;;1999.90;999.90;;;27.70;1.00;;;;;;5072704;28;20183;-63
2022/07/12 09:22:58;;;;;;;1999.90;999.90;;;27.50;1.00;;;;;;5072087;28;20583;-63
2022/07/12 09:25:25;;;;;;;1999.90;999.90;;;27.60;1.00;;;;;;5072562;28;20201;-63
2022/07/12 09:27:54;;;;;;;1999.90;999.90;;;27.90;1.00;;;;;;5072202;28;20195;-63
2022/07/12 09:30:23;;;;;;;1999.90;999.90;;;28.00;1.00;;;;;;5071766;28;20683;-63
2022/07/12 09:38:22;;;;;;;1999.90;999.90;;;26.90;99.90;;;;;;5072431;28;20201;-63
2022/07/12 09:40:50;;;;;;;1999.90;999.90;;;27.00;1.00;;;;;;5072347;28;20203;-63
2022/07/12 09:43:18;;;;;;;1999.90;999.90;;;27.80;99.90;;;;;;5072270;28;20210;-62
2022/07/12 09:45:48;;;;;;;1999.90;999.90;;;27.70;99.90;;;;;;5072318;28;20209;-62
2022/07/12 09:48:16;;;;;;;1999.90;999.90;;;27.60;99.90;;;;;;5072328;28;20202;-63
2022/07/12 09:50:48;;;;;;;1999.90;999.90;;;27.00;99.90;;;;;;5072309;28;20187;-62
2022/07/12 09:53:21;;;;;;;1999.90;999.90;;;27.20;99.90;;;;;;5072425;28;20229;-62
2022/07/12 09:55:51;;;;;;;1999.90;999.90;;;28.00;99.90;;;;;;5071963;28;20183;-63
2022/07/12 09:58:24;;;;;;;1999.90;999.90;;;28.10;99.90;;;;;;5071858;28;20199;-63
2022/07/12 10:00:53;;;;;;;1999.90;999.90;;;27.80;99.90;;;;;;5072190;28;20183;-62
2022/07/12 10:03:23;;;;;;;1999.90;999.90;;;27.90;99.90;;;;;;5072027;28;20219;-62
2022/07/12 10:05:53;;;;;;;1999.90;999.90;;;27.90;99.90;;;;;;5072141;28;20183;-62
2022/07/12 10:08:22;;;;;;;1999.90;999.90;;;28.00;99.90;;;;;;5071852;28;20671;-62
2022/07/12 10:10:50;;;;;;;1999.90;999.90;;;27.70;99.90;;;;;;5071787;28;20202;-62
2022/07/12 10:13:19;;;;;;;1999.90;999.90;;;28.70;99.90;;;;;;5072080;28;20195;-62
2022/07/12 10:15:49;;;;;;;1999.90;999.90;;;29.10;99.90;;;;;;5072088;28;20205;-62
2022/07/12 10:18:17;;;;;;;1999.90;999.90;;;29.30;99.90;;;;;;5071582;28;20268;-62
2022/07/12 10:20:45;;;;;;;1999.90;999.90;;;28.80;99.90;;;;;;5071957;28;20199;-62
2022/07/12 10:23:34;;;;;;;1999.90;999.90;;;29.20;99.90;;;;;;5071957;28;20211;-63
2022/07/12 10:26:20;;;;;;;1999.90;999.90;;;29.50;99.90;;;;;;5071767;28;20600;-63
2022/07/12 10:29:00;;;;;;;1999.90;999.90;;;28.90;99.90;;;;;;5071643;28;20183;-63
2022/07/12 10:31:30;;;;;;;1999.90;999.90;;;28.90;99.90;;;;;;5071689;28;20191;-62
2022/07/12 10:34:13;;;;;;;1999.90;999.90;;;28.40;99.90;;;;;;5071813;28;20191;-62
2022/07/12 10:37:11;;;;;;;1999.90;999.90;;;28.30;99.90;;;;;;5070095;28;20203;-63
2022/07/12 10:39:40;;;;;;;1999.90;999.90;;;29.20;99.90;;;;;;5029955;28;20782;-63
2022/07/12 10:42:19;;;;;;;1999.90;999.90;;;28.60;99.90;;;;;;5033013;28;21141;-63
2022/07/12 10:44:48;;;;;;;1999.90;999.90;;;29.00;99.90;;;;;;5032914;28;20208;-63
2022/07/12 10:47:17;;;;;;;1999.90;999.90;;;29.40;46.00;;;;;;5032959;28;20196;-63
2022/07/12 10:49:49;;;;;;;1999.90;999.90;;;29.80;99.90;;;;;;5032787;28;20580;-63
2022/07/12 10:52:18;;;;;;;1999.90;999.90;;;29.00;67.70;;;;;;5032875;28;20184;-63
2022/07/12 10:55:18;;;;;;;1999.90;999.90;;;29.20;99.90;;;;;;5032681;28;20575;-63
2022/07/12 10:57:50;;;;;;;1999.90;999.90;;;29.40;82.10;;;;;;5032764;28;20254;-63
2022/07/12 11:00:18;;;;;;;1999.90;999.90;;;29.30;21.90;;;;;;5032707;28;20177;-63
2022/07/12 11:02:45;;;;;;;1999.90;999.90;;;29.80;1.00;;;;;;5032380;28;20668;-63
2022/07/12 11:05:12;;;;;;;1999.90;999.90;;;30.70;1.00;;;;;;5032625;28;20423;-63
2022/07/12 11:07:40;;;;;;;1999.90;999.90;;;30.80;1.00;;;;;;5032534;28;20194;-63
2022/07/12 11:10:13;;;;;;;1999.90;999.90;;;30.50;1.00;;;;;;5032542;28;20204;-63
2022/07/12 11:12:40;;;;;;;1999.90;999.90;;;30.20;1.00;;;;;;5032526;28;20234;-63
2022/07/12 11:15:08;;;;;;;1999.90;999.90;;;30.30;1.00;;;;;;5049278;28;20539;-62
2022/07/12 11:17:35;;;;;;;1999.90;999.90;;;30.40;1.00;;;;;;5074631;28;20239;-63
2022/07/12 11:20:09;;;;;;;1999.90;999.90;;;29.80;1.00;;;;;;5074849;28;20187;-62
2022/07/12 11:22:38;;;;;;;1999.90;999.90;;;29.70;1.00;;;;;;5074336;28;20183;-63
2022/07/12 11:25:10;;;;;;;1999.90;999.90;;;29.70;1.00;;;;;;5074322;28;20687;-63
2022/07/12 11:27:38;;;;;;;1999.90;999.90;;;29.50;1.00;;;;;;5074441;28;20195;-63
2022/07/12 11:30:08;;;;;;;1999.90;999.90;;;29.40;5.50;;;;;;5074587;28;20201;-63
2022/07/12 11:32:36;;;;;;;1999.90;999.90;;;29.40;1.00;;;;;;5074393;28;20198;-62
2022/07/12 11:35:04;;;;;;;1999.90;999.90;;;29.40;1.00;;;;;;5074518;28;20232;-63
2022/07/12 11:37:32;;;;;;;1999.90;999.90;;;29.60;1.00;;;;;;5074494;28;20195;-63
2022/07/12 11:39:59;;;;;;;1999.90;999.90;;;29.50;1.00;;;;;;5074407;28;20198;-63
2022/07/12 11:42:27;;;;;;;1999.90;999.90;;;29.30;1.00;;;;;;5074267;28;20195;-63
2022/07/12 11:44:55;;;;;;;1999.90;999.90;;;29.50;35.10;;;;;;5073897;28;20225;-63
2022/07/12 11:47:23;;;;;;;1999.90;999.90;;;30.10;7.90;;;;;;5074191;28;20207;-63
2022/07/12 11:49:52;;;;;;;1999.90;999.90;;;29.70;1.00;;;;;;5073884;28;20195;-63
2022/07/12 11:52:20;;;;;;;1999.90;999.90;;;29.50;1.00;;;;;;5073019;28;20201;-63
2022/07/12 11:54:49;;;;;;;1999.90;999.90;;;30.10;1.00;;;;;;5073766;28;20195;-63
2022/07/12 11:57:20;;;;;;;1999.90;999.90;;;30.30;1.00;;;;;;5073707;28;20232;-64
2022/07/12 11:59:49;;;;;;;1999.90;999.90;;;30.00;1.00;;;;;;5073718;28;20549;-63
2022/07/12 12:02:17;;;;;;;1999.90;999.90;;;29.60;1.00;;;;;;5073781;28;20203;-63
2022/07/12 12:04:49;;;;;;;1999.90;999.90;;;29.50;1.00;;;;;;5073698;28;20217;-63
2022/07/12 12:07:17;;;;;;;1999.90;999.90;;;29.50;1.00;;;;;;5073614;28;20663;-62
2022/07/12 12:10:11;;;;;;;1999.90;999.90;;;29.60;1.00;;;;;;5073413;28;20702;-64
2022/07/12 12:12:42;;;;;;;1999.90;999.90;;;30.10;1.00;;;;;;5064172;28;20207;-63
2022/07/12 12:15:12;;;;;;;1999.90;999.90;;;30.10;1.00;;;;;;5073653;28;20183;-63
2022/07/12 12:17:46;;;;;;;1999.90;999.90;;;30.20;1.00;;;;;;5073392;28;20284;-63
2022/07/12 12:20:16;;;;;;;1999.90;999.90;;;30.20;1.00;;;;;;5073334;28;20524;-64
2022/07/12 12:22:44;;;;;;;1999.90;999.90;;;29.60;1.00;;;;;;5073449;28;20215;-63